Time;durP1;ratioP1;P1;durP2;ratioP2;P2;SDS_P1;SDS_P2;PMS_P1;PMS_P2;Temp;Humidity;BMP_temperature;BMP_pressure;BME280_temperature;BME280_humidity;BME280_pressure;Samples;Min_cycle;Max_cycle;Signal;HPM_P1;HPM_P2
2022/08/08 00:00:50;;;;;;;2.92;2.72;;;;;;;;;;1607239;30;21640;-58
2022/08/08 00:01:49;;;;;;;3.60;2.75;;;;;;;;;;1607299;30;21908;-58
2022/08/08 00:02:51;;;;;;;3.17;2.70;;;;;;;;;;1609930;30;22317;-58
2022/08/08 00:04:07;;;;;;;2.83;2.58;;;;;;;;;;1608560;30;21600;-58
2022/08/08 00:05:07;;;;;;;3.17;2.60;;;;;;;;;;1611239;30;21613;-58
2022/08/08 00:06:07;;;;;;;3.03;2.72;;;;;;;;;;1602683;30;22587;-58
2022/08/08 00:07:11;;;;;;;3.53;3.20;;;;;;;;;;1607722;30;22536;-59
2022/08/08 00:08:12;;;;;;;2.92;2.72;;;;;;;;;;1605432;30;21621;-58
2022/08/08 00:09:14;;;;;;;2.80;2.60;;;;;;;;;;1618823;30;21774;-58
2022/08/08 00:10:13;;;;;;;3.40;3.13;;;;;;;;;;1620115;30;22087;-58
2022/08/08 00:11:14;;;;;;;3.08;2.83;;;;;;;;;;1620375;30;21664;-59
2022/08/08 00:12:10;;;;;;;3.30;3.10;;;;;;;;;;1616976;30;22686;-58
2022/08/08 00:13:16;;;;;;;3.25;2.95;;;;;;;;;;1617606;30;21802;-57
2022/08/08 00:14:19;;;;;;;3.10;2.80;;;;;;;;;;1620612;30;22453;-57
2022/08/08 00:15:15;;;;;;;6.72;2.90;;;;;;;;;;1618587;30;21778;-58
2022/08/08 00:16:12;;;;;;;2.95;2.75;;;;;;;;;;1619071;30;22082;-58
2022/08/08 00:17:13;;;;;;;3.13;2.70;;;;;;;;;;1619261;30;21650;-58
2022/08/08 00:18:11;;;;;;;;;;;;;;;;;;1619958;30;21765;-57
2022/08/08 00:19:13;;;;;;;2.65;2.45;;;;;;;;;;1620995;30;21636;-58
2022/08/08 00:20:09;;;;;;;3.92;3.22;;;;;;;;;;1617795;30;21584;-58
2022/08/08 00:21:02;;;;;;;3.10;2.72;;;;;;;;;;1618750;30;22577;-58
2022/08/08 00:21:59;;;;;;;7.53;3.13;;;;;;;;;;1621416;30;21670;-58
2022/08/08 00:22:54;;;;;;;3.88;2.65;;;;;;;;;;1625406;30;21688;-57
2022/08/08 00:23:52;;;;;;;3.05;2.85;;;;;;;;;;1615526;30;21627;-58
2022/08/08 00:24:47;;;;;;;2.55;2.35;;;;;;;;;;1619155;30;22692;-59
2022/08/08 00:25:42;;;;;;;3.03;2.72;;;;;;;;;;1623033;30;22361;-58
2022/08/08 00:26:39;;;;;;;3.40;3.10;;;;;;;;;;1620051;30;21964;-58
2022/08/08 00:27:33;;;;;;;2.78;2.58;;;;;;;;;;1618636;30;21606;-58
2022/08/08 00:28:33;;;;;;;3.13;2.92;;;;;;;;;;1621635;30;21639;-58
2022/08/08 00:29:30;;;;;;;3.42;2.95;;;;;;;;;;1619180;30;21777;-57
2022/08/08 00:30:23;;;;;;;3.38;3.08;;;;;;;;;;1619411;30;21760;-57
2022/08/08 00:31:24;;;;;;;3.28;2.97;;;;;;;;;;1621696;30;21617;-58
2022/08/08 00:32:22;;;;;;;3.10;2.50;;;;;;;;;;1620180;30;21732;-58
2022/08/08 00:33:18;;;;;;;3.35;3.05;;;;;;;;;;1620613;30;21733;-58
2022/08/08 00:35:57;;;;;;;4.85;2.50;;;;;;;;;;1620331;30;21741;-58
2022/08/08 00:36:55;;;;;;;3.05;2.63;;;;;;;;;;1615634;30;21584;-58
2022/08/08 00:38:04;;;;;;;3.13;2.83;;;;;;;;;;1620792;30;21633;-58
2022/08/08 00:39:05;;;;;;;3.53;3.22;;;;;;;;;;1615419;30;21677;-58
2022/08/08 00:40:21;;;;;;;3.80;3.08;;;;;;;;;;1614748;30;21756;-57
2022/08/08 00:42:08;;;;;;;3.10;2.90;;;;;;;;;;1617725;30;21754;-58
2022/08/08 00:43:42;;;;;;;8.30;2.80;;;;;;;;;;1616572;30;22484;-59
2022/08/08 00:45:03;;;;;;;2.70;2.50;;;;;;;;;;1618576;30;21660;-58
2022/08/08 00:46:13;;;;;;;2.95;2.67;;;;;;;;;;1616694;30;21685;-58
2022/08/08 00:48:21;;;;;;;4.78;2.50;;;;;;;;;;1614913;30;21996;-57
2022/08/08 00:50:20;;;;;;;2.50;2.30;;;;;;;;;;1598816;30;22622;-57
2022/08/08 00:51:58;;;;;;;2.78;2.50;;;;;;;;;;1578258;30;21631;-57
2022/08/08 00:52:58;;;;;;;2.58;2.35;;;;;;;;;;1592141;30;21622;-58
2022/08/08 00:54:36;;;;;;;2.88;2.63;;;;;;;;;;1616453;30;22478;-57
2022/08/08 00:56:23;;;;;;;4.85;2.80;;;;;;;;;;1601747;30;22635;-58
2022/08/08 00:57:56;;;;;;;2.63;2.42;;;;;;;;;;1607487;30;22451;-58
2022/08/08 00:59:37;;;;;;;2.33;2.13;;;;;;;;;;1598367;30;22742;-57
2022/08/08 01:00:35;;;;;;;2.72;2.53;;;;;;;;;;1620617;30;21644;-58
2022/08/08 01:01:34;;;;;;;2.30;2.10;;;;;;;;;;1619131;30;22496;-58
2022/08/08 01:02:58;;;;;;;2.67;2.38;;;;;;;;;;1623224;30;21611;-57
2022/08/08 01:04:43;;;;;;;7.05;2.17;;;;;;;;;;1615183;30;21768;-58
2022/08/08 01:06:35;;;;;;;2.72;2.53;;;;;;;;;;1619662;30;22036;-58
2022/08/08 01:07:55;;;;;;;2.20;2.00;;;;;;;;;;1606596;30;21693;-58
2022/08/08 01:09:41;;;;;;;2.15;1.95;;;;;;;;;;1600311;30;22498;-57
2022/08/08 01:11:15;;;;;;;2.55;2.03;;;;;;;;;;1602337;30;22172;-58
2022/08/08 01:12:57;;;;;;;2.38;2.03;;;;;;;;;;1615934;30;22065;-58
2022/08/08 01:14:27;;;;;;;4.93;2.00;;;;;;;;;;1619329;30;22074;-59
2022/08/08 01:16:01;;;;;;;2.47;2.13;;;;;;;;;;1617595;30;21615;-58
2022/08/08 01:17:40;;;;;;;5.38;2.40;;;;;;;;;;1619750;30;21645;-58
2022/08/08 01:19:21;;;;;;;2.17;1.98;;;;;;;;;;1616211;30;21612;-58
2022/08/08 01:20:33;;;;;;;;;;;;;;;;;;1626345;30;22210;-58
2022/08/08 01:21:43;;;;;;;2.42;2.20;;;;;;;;;;1619165;30;22034;-58
2022/08/08 01:23:05;;;;;;;2.05;1.85;;;;;;;;;;1621071;30;21735;-57
2022/08/08 01:24:40;;;;;;;2.10;1.92;;;;;;;;;;1616444;30;21631;-59
2022/08/08 01:26:19;;;;;;;1.67;1.58;;;;;;;;;;1614724;30;22147;-58
2022/08/08 01:27:57;;;;;;;1.92;1.73;;;;;;;;;;1617592;30;21616;-57
2022/08/08 01:29:35;;;;;;;5.82;2.08;;;;;;;;;;1618688;30;21626;-58
2022/08/08 01:31:18;;;;;;;2.13;1.98;;;;;;;;;;1616825;30;21656;-58
2022/08/08 01:33:08;;;;;;;2.38;2.17;;;;;;;;;;1618736;30;22257;-58
2022/08/08 01:34:47;;;;;;;2.33;2.13;;;;;;;;;;1620060;30;21575;-58
2022/08/08 01:36:33;;;;;;;4.05;1.70;;;;;;;;;;1623742;30;21685;-56
2022/08/08 01:38:13;;;;;;;2.63;2.38;;;;;;;;;;1621989;30;21782;-57
2022/08/08 01:39:27;;;;;;;3.03;2.72;;;;;;;;;;1615258;30;21585;-57
2022/08/08 01:40:27;;;;;;;2.40;2.00;;;;;;;;;;1615556;30;22286;-58
2022/08/08 01:41:28;;;;;;;2.63;2.42;;;;;;;;;;1621882;30;21611;-57
2022/08/08 01:42:30;;;;;;;2.30;2.10;;;;;;;;;;1619148;30;22458;-58
2022/08/08 01:43:34;;;;;;;3.15;2.50;;;;;;;;;;1619973;30;21659;-58
2022/08/08 01:44:57;;;;;;;2.45;2.25;;;;;;;;;;1615856;30;21737;-59
2022/08/08 01:45:57;;;;;;;2.85;2.10;;;;;;;;;;1619634;30;21798;-57
2022/08/08 01:47:00;;;;;;;3.35;2.63;;;;;;;;;;1619425;30;21615;-58
2022/08/08 01:48:10;;;;;;;7.32;2.47;;;;;;;;;;1619017;30;21741;-57
2022/08/08 01:49:17;;;;;;;4.20;2.60;;;;;;;;;;1618129;30;21611;-58
2022/08/08 01:50:25;;;;;;;4.43;2.72;;;;;;;;;;1619180;30;22246;-58
2022/08/08 01:51:50;;;;;;;3.05;2.55;;;;;;;;;;1619857;30;21778;-59
2022/08/08 01:52:51;;;;;;;2.97;2.50;;;;;;;;;;1615910;30;21789;-58
2022/08/08 01:53:54;;;;;;;4.10;2.55;;;;;;;;;;1618039;30;21593;-58
2022/08/08 01:55:07;;;;;;;3.38;2.92;;;;;;;;;;1621900;30;21652;-58
2022/08/08 01:56:07;;;;;;;3.05;2.72;;;;;;;;;;1614225;30;21840;-57
2022/08/08 01:57:16;;;;;;;2.88;2.67;;;;;;;;;;1614791;30;21605;-57
2022/08/08 01:58:24;;;;;;;3.00;2.63;;;;;;;;;;1619067;30;21783;-57
2022/08/08 01:59:53;;;;;;;8.15;2.67;;;;;;;;;;1619398;30;21580;-58
2022/08/08 02:00:58;;;;;;;3.92;3.05;;;;;;;;;;1619930;30;21664;-58
2022/08/08 02:02:07;;;;;;;4.68;3.00;;;;;;;;;;1620985;30;21603;-57
2022/08/08 02:03:19;;;;;;;2.67;2.40;;;;;;;;;;1618280;30;21671;-58
2022/08/08 02:04:24;;;;;;;5.78;3.00;;;;;;;;;;1618361;30;21672;-57
2022/08/08 02:05:33;;;;;;;3.20;2.75;;;;;;;;;;1620204;30;21934;-58
2022/08/08 02:06:42;;;;;;;3.33;2.92;;;;;;;;;;1619816;30;22266;-57
2022/08/08 02:07:56;;;;;;;3.47;2.50;;;;;;;;;;1617184;30;22044;-58
2022/08/08 02:08:59;;;;;;;2.78;2.53;;;;;;;;;;1619738;30;21628;-57
2022/08/08 02:10:15;;;;;;;5.18;2.55;;;;;;;;;;1621066;30;21609;-58
2022/08/08 02:11:14;;;;;;;3.22;2.90;;;;;;;;;;1619309;30;22297;-57
2022/08/08 02:12:14;;;;;;;3.55;3.00;;;;;;;;;;1616166;30;21744;-57
2022/08/08 02:13:14;;;;;;;3.60;2.35;;;;;;;;;;1618760;30;21619;-58
2022/08/08 02:14:18;;;;;;;2.95;2.40;;;;;;;;;;1620070;30;21916;-58
2022/08/08 02:15:20;;;;;;;3.80;2.65;;;;;;;;;;1620795;30;21668;-57
2022/08/08 02:16:26;;;;;;;3.63;2.30;;;;;;;;;;1613302;30;21645;-58
2022/08/08 02:17:24;;;;;;;2.83;2.25;;;;;;;;;;1617084;30;21922;-58
2022/08/08 02:18:38;;;;;;;3.13;2.63;;;;;;;;;;1618681;30;22539;-59
2022/08/08 02:19:38;;;;;;;2.53;2.33;;;;;;;;;;1617720;30;21607;-58
2022/08/08 02:20:39;;;;;;;3.88;2.88;;;;;;;;;;1618344;30;21663;-58
2022/08/08 02:22:58;;;;;;;3.60;2.20;;;;;;;;;;1618197;30;21810;-58
2022/08/08 02:24:01;;;;;;;2.70;2.13;;;;;;;;;;1618045;30;22494;-57
2022/08/08 02:24:57;;;;;;;3.50;2.55;;;;;;;;;;1619635;30;21661;-58
2022/08/08 02:25:56;;;;;;;3.17;2.15;;;;;;;;;;1620900;30;21735;-58
2022/08/08 02:26:55;;;;;;;2.53;2.33;;;;;;;;;;1613451;30;21650;-57
2022/08/08 02:27:59;;;;;;;3.28;2.60;;;;;;;;;;1619198;30;21666;-58
2022/08/08 02:29:12;;;;;;;3.60;2.33;;;;;;;;;;1620742;30;21643;-59
2022/08/08 02:30:08;;;;;;;3.10;2.22;;;;;;;;;;1620590;30;22085;-58
2022/08/08 02:31:06;;;;;;;2.75;2.20;;;;;;;;;;1617114;30;22070;-58
2022/08/08 02:32:30;;;;;;;2.63;2.15;;;;;;;;;;1620061;30;21667;-58
2022/08/08 02:33:44;;;;;;;3.53;2.40;;;;;;;;;;1617864;30;21908;-58
2022/08/08 02:35:30;;;;;;;2.72;2.53;;;;;;;;;;1616885;30;21785;-58
2022/08/08 02:36:39;;;;;;;2.67;2.45;;;;;;;;;;1610529;30;21642;-57
2022/08/08 02:37:49;;;;;;;2.20;2.00;;;;;;;;;;1615304;30;21749;-58
2022/08/08 02:38:54;;;;;;;2.63;2.42;;;;;;;;;;1614111;30;22543;-59
2022/08/08 02:39:58;;;;;;;2.38;2.17;;;;;;;;;;1614067;30;21688;-58
2022/08/08 02:41:40;;;;;;;3.17;2.15;;;;;;;;;;1620011;30;21694;-57
2022/08/08 02:43:26;;;;;;;4.40;2.60;;;;;;;;;;1612360;30;21711;-58
2022/08/08 02:45:11;;;;;;;5.35;2.60;;;;;;;;;;1619940;30;21654;-58
2022/08/08 02:46:27;;;;;;;2.63;2.42;;;;;;;;;;1618213;30;21666;-58
2022/08/08 02:48:17;;;;;;;2.10;1.92;;;;;;;;;;1618724;30;21620;-57
2022/08/08 02:49:41;;;;;;;7.45;2.20;;;;;;;;;;1619312;30;21755;-58
2022/08/08 02:51:20;;;;;;;2.40;2.03;;;;;;;;;;1606233;30;21725;-58
2022/08/08 02:52:53;;;;;;;4.63;2.45;;;;;;;;;;1619421;30;21664;-58
2022/08/08 02:54:07;;;;;;;3.97;2.20;;;;;;;;;;1616220;30;21728;-57
2022/08/08 02:55:53;;;;;;;2.60;2.22;;;;;;;;;;1616703;30;21628;-57
2022/08/08 02:57:46;;;;;;;2.20;2.00;;;;;;;;;;1620492;30;22107;-58
2022/08/08 02:59:42;;;;;;;3.35;1.85;;;;;;;;;;1618677;30;21837;-57
2022/08/08 03:01:22;;;;;;;1.88;1.77;;;;;;;;;;1613557;30;22103;-57
2022/08/08 03:03:01;;;;;;;2.77;2.17;;;;;;;;;;1619225;30;21595;-57
2022/08/08 03:04:42;;;;;;;4.28;2.10;;;;;;;;;;1615936;30;22004;-58
2022/08/08 03:06:11;;;;;;;3.83;2.08;;;;;;;;;;1616160;30;21996;-57
2022/08/08 03:07:52;;;;;;;3.60;2.10;;;;;;;;;;1616632;30;22206;-57
2022/08/08 03:09:52;;;;;;;2.90;2.15;;;;;;;;;;1594395;30;21745;-57
2022/08/08 03:11:43;;;;;;;2.20;2.00;;;;;;;;;;1605706;30;22158;-58
2022/08/08 03:13:26;;;;;;;2.83;1.83;;;;;;;;;;1610395;30;21840;-58
2022/08/08 03:15:02;;;;;;;4.45;1.90;;;;;;;;;;1617277;30;22628;-58
2022/08/08 03:16:30;;;;;;;1.77;1.67;;;;;;;;;;1601306;30;21650;-58
2022/08/08 03:17:31;;;;;;;2.00;1.80;;;;;;;;;;1614700;30;22364;-58
2022/08/08 03:18:28;;;;;;;;;;;;;;;;;;1618182;30;21702;-59
2022/08/08 03:20:04;;;;;;;2.95;2.40;;;;;;;;;;1617891;30;21574;-57
2022/08/08 03:20:55;;;;;;;2.65;1.58;;;;;;;;;;1618181;30;22719;-57
2022/08/08 03:21:46;;;;;;;4.63;1.85;;;;;;;;;;1622571;30;21703;-58
2022/08/08 03:22:45;;;;;;;2.72;1.90;;;;;;;;;;1621922;30;21998;-57
2022/08/08 03:23:37;;;;;;;1.95;1.75;;;;;;;;;;1620162;30;22426;-58
2022/08/08 03:24:28;;;;;;;2.67;2.00;;;;;;;;;;1619791;30;21663;-58
2022/08/08 03:25:23;;;;;;;4.88;2.20;;;;;;;;;;1622695;30;22235;-57
2022/08/08 03:26:18;;;;;;;2.05;1.73;;;;;;;;;;1619214;30;22791;-59
2022/08/08 03:27:19;;;;;;;2.03;1.80;;;;;;;;;;1616124;30;21685;-58
2022/08/08 03:28:19;;;;;;;1.70;1.58;;;;;;;;;;1619809;30;21737;-57
2022/08/08 03:29:13;;;;;;;;;;;;;;;;;;1621780;30;21692;-57
2022/08/08 03:30:08;;;;;;;1.77;1.65;;;;;;;;;;1621294;30;21961;-59
2022/08/08 03:33:16;;;;;;;2.17;1.80;;;;;;;;;;1620695;30;21654;-58
2022/08/08 03:33:22;;;;;;;3.47;1.55;;;;;;;;;;1616286;30;21612;-57
2022/08/08 03:34:14;;;;;;;3.95;1.60;;;;;;;;;;1617739;30;21637;-56
2022/08/08 03:35:07;;;;;;;1.95;1.60;;;;;;;;;;1617344;30;22184;-58
2022/08/08 03:35:59;;;;;;;2.28;1.60;;;;;;;;;;1608511;30;22033;-57
2022/08/08 03:36:52;;;;;;;1.88;1.77;;;;;;;;;;1611485;30;21682;-58
2022/08/08 03:37:45;;;;;;;2.72;1.63;;;;;;;;;;1616111;30;21865;-58
2022/08/08 03:38:37;;;;;;;4.72;1.42;;;;;;;;;;1618767;30;21778;-57
2022/08/08 03:39:29;;;;;;;2.10;1.58;;;;;;;;;;1620397;30;21591;-57
2022/08/08 03:40:24;;;;;;;2.00;1.45;;;;;;;;;;1620488;30;22414;-58
2022/08/08 03:41:16;;;;;;;2.40;1.52;;;;;;;;;;1619179;30;22100;-58
2022/08/08 03:42:14;;;;;;;1.65;1.40;;;;;;;;;;1622119;30;21867;-58
2022/08/08 03:43:07;;;;;;;6.35;1.40;;;;;;;;;;1617874;30;21778;-58
2022/08/08 03:43:59;;;;;;;1.98;1.40;;;;;;;;;;1621865;30;21994;-58
2022/08/08 03:44:51;;;;;;;1.77;1.67;;;;;;;;;;1621288;30;21626;-58
2022/08/08 03:45:43;;;;;;;2.95;1.55;;;;;;;;;;1619232;30;21639;-58
2022/08/08 03:46:45;;;;;;;2.55;1.30;;;;;;;;;;1620837;30;21618;-57
2022/08/08 03:47:38;;;;;;;1.73;1.63;;;;;;;;;;1619020;30;21837;-57
2022/08/08 03:48:29;;;;;;;1.92;1.60;;;;;;;;;;1621336;30;21803;-59
2022/08/08 03:49:24;;;;;;;5.00;1.83;;;;;;;;;;1621456;30;21968;-57
2022/08/08 03:50:16;;;;;;;1.98;1.80;;;;;;;;;;1619102;30;22418;-58
2022/08/08 03:51:09;;;;;;;1.60;1.50;;;;;;;;;;1621475;30;21612;-57
2022/08/08 03:52:00;;;;;;;2.65;1.67;;;;;;;;;;1621204;30;22732;-58
2022/08/08 03:52:54;;;;;;;1.95;1.67;;;;;;;;;;1618556;30;22050;-59
2022/08/08 03:53:45;;;;;;;2.60;1.67;;;;;;;;;;1619595;30;22105;-58
2022/08/08 03:54:37;;;;;;;5.47;1.58;;;;;;;;;;1620829;30;21621;-58
2022/08/08 03:55:28;;;;;;;7.05;1.67;;;;;;;;;;1619031;30;21585;-58
2022/08/08 03:56:22;;;;;;;1.73;1.50;;;;;;;;;;1618563;30;21604;-58
2022/08/08 03:57:15;;;;;;;1.48;1.38;;;;;;;;;;1621002;30;21772;-57
2022/08/08 03:58:09;;;;;;;2.08;1.52;;;;;;;;;;1621511;30;21553;-58
2022/08/08 03:59:00;;;;;;;1.85;1.73;;;;;;;;;;1621355;30;21668;-58
2022/08/08 03:59:51;;;;;;;1.98;1.50;;;;;;;;;;1620709;30;21865;-58
2022/08/08 04:00:51;;;;;;;1.38;1.27;;;;;;;;;;1618962;30;22435;-58
2022/08/08 04:01:42;;;;;;;1.40;1.30;;;;;;;;;;1617347;30;21792;-58
2022/08/08 04:02:35;;;;;;;2.08;1.60;;;;;;;;;;1621894;30;21605;-58
2022/08/08 04:03:33;;;;;;;2.67;1.58;;;;;;;;;;1620880;30;22600;-58
2022/08/08 04:04:25;;;;;;;1.80;1.58;;;;;;;;;;1615985;30;21626;-58
2022/08/08 04:05:17;;;;;;;2.95;1.88;;;;;;;;;;1622593;30;22357;-58
2022/08/08 04:06:09;;;;;;;1.98;1.88;;;;;;;;;;1619041;30;21715;-58
2022/08/08 04:07:00;;;;;;;1.40;1.30;;;;;;;;;;1619593;30;21699;-58
2022/08/08 04:07:53;;;;;;;2.10;1.60;;;;;;;;;;1621117;30;21766;-57
2022/08/08 04:08:46;;;;;;;3.40;1.55;;;;;;;;;;1620017;30;21664;-57
2022/08/08 04:09:37;;;;;;;1.73;1.63;;;;;;;;;;1621680;30;21786;-58
2022/08/08 04:10:31;;;;;;;2.58;1.85;;;;;;;;;;1619845;30;21595;-57
2022/08/08 04:11:22;;;;;;;2.67;1.85;;;;;;;;;;1623437;30;21926;-58
2022/08/08 04:12:14;;;;;;;1.45;1.20;;;;;;;;;;1619652;30;22142;-58
2022/08/08 04:13:05;;;;;;;1.90;1.70;;;;;;;;;;1618009;30;22462;-59
2022/08/08 04:13:57;;;;;;;1.67;1.50;;;;;;;;;;1621701;30;21585;-58
2022/08/08 04:14:49;;;;;;;4.40;1.48;;;;;;;;;;1619821;30;21736;-58
2022/08/08 04:15:41;;;;;;;2.33;1.50;;;;;;;;;;1620065;30;21594;-58
2022/08/08 04:16:32;;;;;;;1.70;1.45;;;;;;;;;;1620465;30;21698;-59
2022/08/08 04:17:24;;;;;;;5.13;1.88;;;;;;;;;;1619268;30;21661;-57
2022/08/08 04:18:16;;;;;;;1.77;1.55;;;;;;;;;;1619228;30;21612;-58
2022/08/08 04:19:08;;;;;;;1.58;1.48;;;;;;;;;;1618977;30;21653;-59
2022/08/08 04:19:59;;;;;;;1.42;1.33;;;;;;;;;;1620406;30;22041;-57
2022/08/08 04:20:52;;;;;;;1.73;1.63;;;;;;;;;;1619273;30;21832;-57
2022/08/08 04:21:43;;;;;;;3.13;1.63;;;;;;;;;;1621739;30;21592;-58
2022/08/08 04:22:35;;;;;;;1.30;1.20;;;;;;;;;;1620244;30;21920;-58
2022/08/08 04:23:28;;;;;;;3.22;1.80;;;;;;;;;;1619044;30;22134;-58
2022/08/08 04:24:20;;;;;;;2.08;1.92;;;;;;;;;;1619782;30;21860;-58
2022/08/08 04:25:12;;;;;;;2.20;1.77;;;;;;;;;;1620598;30;22106;-58
2022/08/08 04:26:04;;;;;;;2.30;1.50;;;;;;;;;;1618220;30;21654;-57
2022/08/08 04:26:55;;;;;;;1.70;1.60;;;;;;;;;;1619857;30;21605;-57
2022/08/08 04:27:47;;;;;;;4.10;1.77;;;;;;;;;;1619331;30;22489;-58
2022/08/08 04:28:38;;;;;;;1.80;1.70;;;;;;;;;;1620765;30;21765;-58
2022/08/08 04:29:30;;;;;;;2.40;1.80;;;;;;;;;;1620708;30;21634;-57
2022/08/08 04:30:22;;;;;;;1.40;1.30;;;;;;;;;;1619454;30;21732;-59
2022/08/08 04:31:14;;;;;;;2.35;1.27;;;;;;;;;;1619927;30;21829;-57
2022/08/08 04:32:07;;;;;;;1.42;1.33;;;;;;;;;;1618927;30;21972;-57
2022/08/08 04:32:59;;;;;;;1.63;1.52;;;;;;;;;;1619573;30;21604;-58
2022/08/08 04:33:50;;;;;;;1.48;1.23;;;;;;;;;;1620074;30;21768;-57
2022/08/08 04:34:42;;;;;;;1.73;1.63;;;;;;;;;;1619552;30;21928;-58
2022/08/08 04:35:34;;;;;;;1.60;1.45;;;;;;;;;;1618535;30;21782;-58
2022/08/08 04:36:26;;;;;;;1.58;1.48;;;;;;;;;;1615788;30;21719;-58
2022/08/08 04:37:17;;;;;;;1.95;1.70;;;;;;;;;;1618361;30;22274;-58
2022/08/08 04:38:10;;;;;;;5.35;1.60;;;;;;;;;;1619132;30;22086;-58
2022/08/08 04:39:02;;;;;;;1.77;1.67;;;;;;;;;;1622760;30;22021;-57
2022/08/08 04:39:55;;;;;;;4.88;1.58;;;;;;;;;;1620774;30;22054;-59
2022/08/08 04:40:46;;;;;;;2.10;1.63;;;;;;;;;;1618319;30;21712;-58
2022/08/08 04:41:39;;;;;;;1.65;1.55;;;;;;;;;;1620292;30;22401;-58
2022/08/08 04:42:32;;;;;;;2.85;1.42;;;;;;;;;;1618907;30;21699;-57
2022/08/08 04:43:25;;;;;;;2.13;1.90;;;;;;;;;;1619330;30;21621;-58
2022/08/08 04:44:16;;;;;;;2.10;1.70;;;;;;;;;;1619187;30;21661;-58
2022/08/08 04:45:09;;;;;;;1.70;1.60;;;;;;;;;;1620648;30;21993;-57
2022/08/08 04:46:01;;;;;;;1.70;1.50;;;;;;;;;;1619155;30;21626;-58
2022/08/08 04:46:53;;;;;;;3.08;1.45;;;;;;;;;;1620564;30;21592;-58
2022/08/08 04:47:44;;;;;;;2.65;1.88;;;;;;;;;;1620920;30;22560;-57
2022/08/08 04:48:36;;;;;;;1.92;1.80;;;;;;;;;;1619939;30;21824;-58
2022/08/08 04:49:27;;;;;;;2.08;1.88;;;;;;;;;;1620538;30;21757;-57
2022/08/08 04:50:20;;;;;;;1.65;1.50;;;;;;;;;;1620047;30;21798;-57
2022/08/08 04:51:11;;;;;;;5.28;1.40;;;;;;;;;;1618793;30;21617;-57
2022/08/08 04:52:04;;;;;;;1.95;1.65;;;;;;;;;;1620958;30;21971;-58
2022/08/08 04:52:56;;;;;;;1.70;1.27;;;;;;;;;;1618202;30;21825;-57
2022/08/08 04:53:48;;;;;;;1.70;1.60;;;;;;;;;;1620737;30;21681;-57
2022/08/08 04:54:40;;;;;;;1.52;1.42;;;;;;;;;;1622843;30;21662;-58
2022/08/08 04:55:33;;;;;;;1.80;1.58;;;;;;;;;;1621147;30;21602;-57
2022/08/08 04:56:24;;;;;;;2.50;1.42;;;;;;;;;;1620979;30;22195;-57
2022/08/08 04:57:16;;;;;;;6.03;1.75;;;;;;;;;;1621800;30;21718;-58
2022/08/08 04:58:12;;;;;;;2.15;1.60;;;;;;;;;;1621679;30;21735;-58
2022/08/08 04:59:04;;;;;;;1.60;1.50;;;;;;;;;;1619491;30;21919;-58
2022/08/08 04:59:56;;;;;;;2.63;1.55;;;;;;;;;;1619751;30;21665;-58
2022/08/08 05:00:48;;;;;;;1.85;1.65;;;;;;;;;;1619628;30;22469;-57
2022/08/08 05:01:39;;;;;;;1.90;1.58;;;;;;;;;;1620566;30;21667;-58
2022/08/08 05:02:31;;;;;;;2.28;1.80;;;;;;;;;;1621645;30;21558;-58
2022/08/08 05:03:23;;;;;;;1.90;1.55;;;;;;;;;;1620411;30;22466;-58
2022/08/08 05:04:16;;;;;;;1.85;1.63;;;;;;;;;;1619300;30;21631;-58
2022/08/08 05:05:08;;;;;;;4.13;1.50;;;;;;;;;;1619542;30;21842;-58
2022/08/08 05:06:00;;;;;;;1.60;1.50;;;;;;;;;;1620140;30;21649;-57
2022/08/08 05:06:51;;;;;;;1.63;1.52;;;;;;;;;;1619272;30;22614;-58
2022/08/08 05:07:45;;;;;;;2.17;1.60;;;;;;;;;;1620108;30;22639;-58
2022/08/08 05:08:36;;;;;;;1.33;1.23;;;;;;;;;;1619721;30;21739;-58
2022/08/08 05:09:29;;;;;;;3.70;1.50;;;;;;;;;;1620980;30;21631;-58
2022/08/08 05:10:21;;;;;;;1.65;1.38;;;;;;;;;;1620338;30;21591;-58
2022/08/08 05:11:13;;;;;;;2.10;1.33;;;;;;;;;;1620494;30;21760;-58
2022/08/08 05:12:07;;;;;;;1.70;1.60;;;;;;;;;;1622155;30;21681;-58
2022/08/08 05:12:58;;;;;;;1.60;1.50;;;;;;;;;;1619605;30;21689;-57
2022/08/08 05:13:50;;;;;;;1.83;1.65;;;;;;;;;;1620483;30;22052;-57
2022/08/08 05:14:41;;;;;;;2.10;2.00;;;;;;;;;;1616711;30;22430;-58
2022/08/08 05:15:33;;;;;;;1.55;1.42;;;;;;;;;;1623056;30;21737;-58
2022/08/08 05:16:25;;;;;;;1.42;1.20;;;;;;;;;;1618591;30;21702;-58
2022/08/08 05:17:18;;;;;;;2.45;1.42;;;;;;;;;;1620168;30;21809;-58
2022/08/08 05:18:09;;;;;;;1.92;1.60;;;;;;;;;;1618749;30;21594;-58
2022/08/08 05:19:01;;;;;;;2.08;1.90;;;;;;;;;;1620043;30;21765;-58
2022/08/08 05:19:52;;;;;;;1.55;1.45;;;;;;;;;;1617064;30;21799;-59
2022/08/08 05:20:45;;;;;;;2.28;1.30;;;;;;;;;;1618986;30;21974;-58
2022/08/08 05:21:36;;;;;;;1.83;1.60;;;;;;;;;;1620719;30;21916;-57
2022/08/08 05:22:28;;;;;;;1.58;1.48;;;;;;;;;;1619121;30;21575;-58
2022/08/08 05:23:19;;;;;;;2.75;1.50;;;;;;;;;;1618774;30;21634;-58
2022/08/08 05:24:13;;;;;;;3.05;1.40;;;;;;;;;;1618456;30;21647;-58
2022/08/08 05:25:05;;;;;;;4.03;1.33;;;;;;;;;;1618618;30;22153;-58
2022/08/08 05:25:59;;;;;;;3.28;1.48;;;;;;;;;;1620397;30;21656;-58
2022/08/08 05:26:50;;;;;;;1.58;1.10;;;;;;;;;;1619537;30;22000;-58
2022/08/08 05:27:42;;;;;;;2.08;1.40;;;;;;;;;;1621039;30;22173;-57
2022/08/08 05:28:33;;;;;;;2.28;1.58;;;;;;;;;;1620422;30;21721;-58
2022/08/08 05:29:26;;;;;;;4.63;1.42;;;;;;;;;;1617673;30;21735;-58
2022/08/08 05:30:17;;;;;;;1.70;1.38;;;;;;;;;;1620300;30;21567;-57
2022/08/08 05:31:10;;;;;;;4.50;1.70;;;;;;;;;;1619819;30;21591;-58
2022/08/08 05:32:01;;;;;;;11.05;2.10;;;;;;;;;;1618076;30;21803;-58
2022/08/08 05:32:53;;;;;;;2.50;1.60;;;;;;;;;;1616405;30;21864;-58
2022/08/08 05:33:45;;;;;;;1.73;1.40;;;;;;;;;;1613321;30;22807;-58
2022/08/08 05:34:42;;;;;;;2.53;2.00;;;;;;;;;;1616982;30;21765;-58
2022/08/08 05:35:35;;;;;;;2.40;1.40;;;;;;;;;;1620161;30;21599;-58
2022/08/08 05:36:28;;;;;;;4.45;1.50;;;;;;;;;;1623222;30;21592;-58
2022/08/08 05:37:24;;;;;;;1.40;1.30;;;;;;;;;;1619840;30;22009;-58
2022/08/08 05:38:18;;;;;;;4.22;1.90;;;;;;;;;;1619777;30;22852;-58
2022/08/08 05:39:09;;;;;;;8.27;1.55;;;;;;;;;;1613889;30;21959;-58
2022/08/08 05:40:04;;;;;;;1.83;1.73;;;;;;;;;;1621784;30;22716;-58
2022/08/08 05:41:02;;;;;;;2.22;1.35;;;;;;;;;;1619731;30;21641;-58
2022/08/08 05:41:56;;;;;;;1.70;1.55;;;;;;;;;;1619901;30;21731;-58
2022/08/08 05:42:50;;;;;;;4.88;1.88;;;;;;;;;;1619182;30;21576;-58
2022/08/08 05:43:46;;;;;;;5.72;1.52;;;;;;;;;;1619336;30;21727;-57
2022/08/08 05:44:45;;;;;;;2.75;1.70;;;;;;;;;;1621367;30;21784;-58
2022/08/08 05:45:38;;;;;;;2.22;1.67;;;;;;;;;;1614169;30;22038;-57
2022/08/08 05:46:29;;;;;;;2.40;1.63;;;;;;;;;;1617034;30;21728;-57
2022/08/08 05:47:21;;;;;;;3.33;1.50;;;;;;;;;;1619237;30;21677;-58
2022/08/08 05:48:13;;;;;;;2.03;1.52;;;;;;;;;;1618832;30;21658;-57
2022/08/08 05:49:06;;;;;;;1.80;1.70;;;;;;;;;;1617230;30;21759;-57
2022/08/08 05:49:58;;;;;;;1.83;1.50;;;;;;;;;;1618961;30;22242;-57
2022/08/08 05:50:50;;;;;;;1.73;1.50;;;;;;;;;;1617510;30;21852;-58
2022/08/08 05:51:43;;;;;;;1.58;1.48;;;;;;;;;;1619689;30;22051;-58
2022/08/08 05:52:36;;;;;;;2.55;1.77;;;;;;;;;;1620299;30;21802;-59
2022/08/08 05:53:27;;;;;;;1.77;1.63;;;;;;;;;;1617921;30;21666;-58
2022/08/08 05:54:19;;;;;;;2.25;1.90;;;;;;;;;;1615890;30;21615;-58
2022/08/08 05:55:11;;;;;;;1.35;1.25;;;;;;;;;;1619774;30;21662;-57
2022/08/08 05:56:08;;;;;;;1.85;1.70;;;;;;;;;;1617814;30;21624;-58
2022/08/08 05:57:00;;;;;;;2.53;1.50;;;;;;;;;;1621409;30;21645;-58
2022/08/08 05:57:53;;;;;;;2.83;1.80;;;;;;;;;;1621251;30;22568;-58
2022/08/08 05:58:49;;;;;;;1.92;1.83;;;;;;;;;;1620299;30;21786;-58
2022/08/08 05:59:42;;;;;;;1.65;1.17;;;;;;;;;;1618977;30;22163;-57
2022/08/08 06:00:35;;;;;;;3.00;1.75;;;;;;;;;;1620097;30;22010;-58
2022/08/08 06:01:28;;;;;;;2.22;1.60;;;;;;;;;;1620400;30;21707;-58
2022/08/08 06:03:34;;;;;;;2.38;1.30;;;;;;;;;;1615636;30;22399;-57
2022/08/08 06:04:28;;;;;;;2.03;1.25;;;;;;;;;;1617630;30;22660;-58
2022/08/08 06:05:21;;;;;;;1.30;1.20;;;;;;;;;;1620907;30;22580;-58
2022/08/08 06:06:13;;;;;;;1.92;1.25;;;;;;;;;;1619002;30;21630;-58
2022/08/08 06:07:09;;;;;;;2.88;1.52;;;;;;;;;;1617716;30;21732;-57
2022/08/08 06:08:01;;;;;;;1.50;1.40;;;;;;;;;;1622883;30;21887;-59
2022/08/08 06:08:56;;;;;;;1.23;1.13;;;;;;;;;;1623217;30;21804;-57
2022/08/08 06:09:47;;;;;;;2.35;1.20;;;;;;;;;;1620314;30;21651;-58
2022/08/08 06:10:41;;;;;;;2.72;1.58;;;;;;;;;;1620263;30;21609;-58
2022/08/08 06:11:35;;;;;;;1.30;1.20;;;;;;;;;;1618704;30;21691;-58
2022/08/08 06:12:28;;;;;;;1.30;1.20;;;;;;;;;;1622887;30;21621;-58
2022/08/08 06:13:19;;;;;;;1.40;1.30;;;;;;;;;;1620098;30;21767;-58
2022/08/08 06:14:12;;;;;;;1.58;1.48;;;;;;;;;;1620069;30;21565;-57
2022/08/08 06:15:07;;;;;;;1.30;1.20;;;;;;;;;;1618628;30;21695;-58
2022/08/08 06:15:59;;;;;;;1.70;1.17;;;;;;;;;;1619372;30;21817;-58
2022/08/08 06:16:51;;;;;;;1.38;1.27;;;;;;;;;;1619932;30;21640;-57
2022/08/08 06:17:43;;;;;;;2.30;1.60;;;;;;;;;;1620310;30;21598;-57
2022/08/08 06:18:37;;;;;;;3.15;1.30;;;;;;;;;;1618893;30;21985;-58
2022/08/08 06:19:29;;;;;;;1.52;1.40;;;;;;;;;;1617960;30;21972;-58
2022/08/08 06:20:20;;;;;;;2.10;1.63;;;;;;;;;;1621278;30;21627;-58
2022/08/08 06:21:15;;;;;;;4.40;1.45;;;;;;;;;;1620885;30;21765;-57
2022/08/08 06:22:06;;;;;;;3.10;1.38;;;;;;;;;;1617640;30;21599;-58
2022/08/08 06:22:58;;;;;;;1.33;1.23;;;;;;;;;;1617833;30;21651;-57